createdAt,value
2023-02-22T00:03:32.589Z,27.10
2023-02-22T00:08:37.158Z,23.10
2023-02-22T00:13:45.855Z,25.50
2023-02-22T00:18:50.327Z,19.10
2023-02-22T00:23:58.291Z,17.90
2023-02-22T00:29:01.457Z,17.30
2023-02-22T00:34:04.524Z,18.70
2023-02-22T00:39:08.517Z,20.70
2023-02-22T00:44:11.902Z,20.00
2023-02-22T00:49:17.248Z,25.80
2023-02-22T00:54:21.944Z,26.80
2023-02-22T00:59:24.735Z,27.20
2023-02-22T01:04:30.603Z,29.70
2023-02-22T01:09:35.106Z,31.30
2023-02-22T01:14:40.141Z,30.50
2023-02-22T01:19:43.243Z,28.10
2023-02-22T01:24:46.788Z,28.00
2023-02-22T01:29:50.285Z,28.00
2023-02-22T01:34:56.497Z,34.30
2023-02-22T01:39:59.365Z,36.40
2023-02-22T01:45:30.518Z,27.10
2023-02-22T01:50:37.566Z,26.90
2023-02-22T01:55:43.593Z,24.20
2023-02-22T02:00:45.834Z,28.70
2023-02-22T02:05:52.924Z,28.80
2023-02-22T02:10:58.098Z,24.40
2023-02-22T02:16:01.087Z,32.00
2023-02-22T02:21:16.451Z,34.10
2023-02-22T02:26:57.627Z,26.90
2023-02-22T02:32:27.550Z,31.20
2023-02-22T02:37:56.620Z,36.30
2023-02-22T02:43:29.612Z,36.30
2023-02-22T02:48:35.005Z,36.00
2023-02-22T02:53:43.223Z,37.50
2023-02-22T02:58:49.157Z,35.50
2023-02-22T03:04:38.193Z,37.30
2023-02-22T03:10:21.428Z,42.00
2023-02-22T03:16:06.448Z,38.60
2023-02-22T03:21:25.471Z,38.60
2023-02-22T03:26:36.369Z,39.20
2023-02-22T03:32:09.712Z,41.70
2023-02-22T03:37:19.457Z,43.10
2023-02-22T03:42:26.824Z,38.90
2023-02-22T03:47:40.073Z,44.40
2023-02-22T03:52:45.304Z,36.90
2023-02-22T03:58:05.141Z,36.60
2023-02-22T04:03:08.031Z,41.70
2023-02-22T04:08:13.730Z,42.80
2023-02-22T04:13:20.150Z,40.00
2023-02-22T04:18:28.875Z,40.30
2023-02-22T04:23:32.231Z,40.40
2023-02-22T04:28:34.788Z,38.50
2023-02-22T04:33:46.226Z,37.30
2023-02-22T04:38:52.222Z,44.30
2023-02-22T04:43:55.283Z,36.20
2023-02-22T04:49:01.373Z,44.00
2023-02-22T04:54:06.932Z,96.80
2023-02-22T04:59:17.265Z,132.80
2023-02-22T05:04:22.780Z,200.00
2023-02-22T05:09:27.582Z,138.40
2023-02-22T05:14:30.610Z,148.20
2023-02-22T05:19:36.254Z,126.30
2023-02-22T05:24:39.173Z,111.00
2023-02-22T05:29:41.640Z,84.30
2023-02-22T05:34:45.775Z,68.10
2023-02-22T05:39:48.622Z,85.10
2023-02-22T05:44:51.004Z,73.30
2023-02-22T05:49:57.752Z,68.50
2023-02-22T05:55:00.792Z,68.10
2023-02-22T06:00:06.928Z,70.50
2023-02-22T06:05:32.093Z,54.70
2023-02-22T06:10:36.653Z,68.50
2023-02-22T06:16:01.073Z,90.00
2023-02-22T06:21:04.534Z,121.10
2023-02-22T06:26:07.742Z,115.80
2023-02-22T06:31:11.313Z,122.60
2023-02-22T06:36:14.004Z,101.50
2023-02-22T06:41:19.008Z,113.90
2023-02-22T06:46:31.208Z,106.70
2023-02-22T06:51:37.717Z,92.20
2023-02-22T06:56:40.334Z,90.50
2023-02-22T07:01:45.141Z,90.20
2023-02-22T07:06:53.908Z,87.40
2023-02-22T07:11:58.737Z,77.40
2023-02-22T07:17:00.929Z,74.80
2023-02-22T07:22:02.986Z,70.00
2023-02-22T07:27:05.509Z,60.00
2023-02-22T07:32:08.371Z,58.80
2023-02-22T07:37:11.707Z,62.40
2023-02-22T07:42:14.731Z,51.90
2023-02-22T07:47:17.789Z,49.20
2023-02-22T07:52:21.599Z,45.60
2023-02-22T07:57:24.062Z,52.20
2023-02-22T08:02:26.709Z,45.90
2023-02-22T08:07:29.083Z,41.40
2023-02-22T08:12:31.697Z,46.10
2023-02-22T08:17:34.598Z,50.10
2023-02-22T08:22:37.045Z,286.10
2023-02-22T08:27:39.186Z,225.90
2023-02-22T08:32:46.678Z,40.50
2023-02-22T08:37:52.665Z,40.30
2023-02-22T08:42:55.416Z,44.80
2023-02-22T08:47:59.493Z,79.50
2023-02-22T08:53:04.133Z,42.80
2023-02-22T08:58:10.253Z,43.60
2023-02-22T09:03:14.956Z,44.20
2023-02-22T09:08:17.454Z,38.40
2023-02-22T09:13:19.698Z,41.70
2023-02-22T09:18:24.512Z,38.20
2023-02-22T09:23:28.591Z,48.30
2023-02-22T09:28:31.786Z,35.80
2023-02-22T09:33:35.244Z,28.40
2023-02-22T09:38:37.215Z,28.00
2023-02-22T09:43:49.864Z,29.00
2023-02-22T09:49:02.184Z,33.20
2023-02-22T09:54:15.096Z,26.20
2023-02-22T09:59:29.393Z,30.00
2023-02-22T10:04:45.389Z,26.50
2023-02-22T10:09:49.826Z,25.40
2023-02-22T10:15:29.149Z,25.80
2023-02-22T10:21:03.971Z,29.60
2023-02-22T10:26:46.904Z,26.90
2023-02-22T10:31:57.619Z,24.80
2023-02-22T10:37:25.648Z,26.50
2023-02-22T10:42:30.323Z,23.60
2023-02-22T10:47:33.939Z,52.10
2023-02-22T10:52:36.001Z,22.10
2023-02-22T10:57:42.419Z,17.90
2023-02-22T11:02:58.300Z,19.80
2023-02-22T11:08:23.096Z,22.20
2023-02-22T11:13:31.207Z,16.10
2023-02-22T11:18:35.235Z,14.30
2023-02-22T11:23:44.739Z,11.90
2023-02-22T11:28:56.607Z,18.40
2023-02-22T11:34:02.101Z,20.30
2023-02-22T11:39:11.525Z,15.70
2023-02-22T11:44:21.602Z,15.80
2023-02-22T11:49:33.312Z,15.40
2023-02-22T11:54:46.832Z,22.00
2023-02-22T12:00:24.609Z,20.10
2023-02-22T12:05:40.998Z,20.00
2023-02-22T12:11:01.126Z,14.10
2023-02-22T12:16:28.771Z,14.90
2023-02-22T12:21:36.684Z,17.70
2023-02-22T12:26:48.384Z,19.10
2023-02-22T12:32:19.854Z,16.00
2023-02-22T12:37:28.994Z,19.90
2023-02-22T12:42:54.686Z,31.10
2023-02-22T12:48:33.154Z,21.20
2023-02-22T12:54:01.525Z,16.50
2023-02-22T12:59:39.443Z,23.00
2023-02-22T13:04:47.979Z,21.30
2023-02-22T13:10:16.863Z,17.70
2023-02-22T13:15:53.678Z,20.00
2023-02-22T13:21:26.263Z,15.90
2023-02-22T13:26:46.281Z,16.90
2023-02-22T13:32:04.695Z,21.40
2023-02-22T13:37:41.490Z,15.50
2023-02-22T13:43:27.717Z,16.30
2023-02-22T13:48:58.450Z,17.00
2023-02-22T13:54:46.195Z,20.70
2023-02-22T13:59:49.759Z,22.00
2023-02-22T14:04:52.938Z,15.80
2023-02-22T14:09:57.487Z,18.00
2023-02-22T14:15:30.154Z,19.70
2023-02-22T14:20:38.263Z,27.60
2023-02-22T14:25:42.826Z,21.30
2023-02-22T14:30:54.144Z,22.50
2023-02-22T14:35:56.716Z,22.90
2023-02-22T14:41:00.583Z,25.30
2023-02-22T14:46:05.400Z,24.40
2023-02-22T14:51:25.060Z,19.10
2023-02-22T14:56:40.671Z,20.10
2023-02-22T15:02:09.609Z,16.80
2023-02-22T15:07:35.892Z,20.20
2023-02-22T15:13:09.502Z,20.60
2023-02-22T15:18:23.738Z,22.40
2023-02-22T15:23:33.377Z,21.80
2023-02-22T15:28:41.399Z,21.90
2023-02-22T15:33:52.999Z,16.40
2023-02-22T15:38:59.279Z,16.20
2023-02-22T15:44:22.690Z,20.00
2023-02-22T15:49:33.764Z,18.40
2023-02-22T15:54:52.196Z,16.20
2023-02-22T15:59:57.527Z,22.20
2023-02-22T16:05:07.302Z,20.20
2023-02-22T16:10:36.928Z,17.90
2023-02-22T16:15:39.439Z,24.00
2023-02-22T16:20:42.110Z,31.40
2023-02-22T16:25:44.879Z,28.90
2023-02-22T16:30:57.492Z,30.70
2023-02-22T16:36:04.823Z,27.40
2023-02-22T16:41:07.801Z,29.80
2023-02-22T16:46:09.815Z,36.90
2023-02-22T16:51:24.546Z,37.00
2023-02-22T16:56:30.904Z,37.10
2023-02-22T17:01:35.268Z,43.40
2023-02-22T17:06:37.855Z,34.60
2023-02-22T17:11:41.883Z,39.90
2023-02-22T17:16:47.042Z,37.90
2023-02-22T17:21:49.742Z,35.40
2023-02-22T17:26:53.292Z,35.20
2023-02-22T17:31:55.778Z,36.00
2023-02-22T17:36:58.241Z,33.30
2023-02-22T17:42:01.102Z,85.90
2023-02-22T17:47:09.200Z,47.90
2023-02-22T17:52:15.699Z,50.80
2023-02-22T17:57:21.570Z,42.20
2023-02-22T18:02:27.085Z,49.10
2023-02-22T18:07:32.356Z,45.50
2023-02-22T18:12:34.921Z,48.50
2023-02-22T18:17:47.598Z,48.70
2023-02-22T18:22:51.664Z,51.20
2023-02-22T18:27:55.072Z,59.00
2023-02-22T18:32:57.905Z,64.10
2023-02-22T18:38:00.943Z,71.00
2023-02-22T18:43:03.436Z,73.10
2023-02-22T18:48:06.671Z,79.20
2023-02-22T18:53:08.553Z,81.50
2023-02-22T18:58:11.184Z,77.90
2023-02-22T19:03:12.982Z,76.30
2023-02-22T19:08:15.653Z,76.80
2023-02-22T19:13:21.148Z,79.10
2023-02-22T19:18:23.766Z,77.80
2023-02-22T19:23:26.419Z,80.00
2023-02-22T19:28:34.065Z,83.30
2023-02-22T19:33:36.713Z,77.00
2023-02-22T19:38:39.420Z,74.60
2023-02-22T19:43:44.793Z,77.10
2023-02-22T19:48:48.836Z,93.00
2023-02-22T19:53:51.450Z,105.30
2023-02-22T19:58:57.336Z,108.00
2023-02-22T20:04:06.196Z,100.40
2023-02-22T20:09:14.175Z,107.40
2023-02-22T20:14:20.143Z,121.10
2023-02-22T20:19:22.965Z,113.90
2023-02-22T20:24:25.641Z,102.70
2023-02-22T20:29:31.592Z,99.80
2023-02-22T20:34:37.187Z,92.00
2023-02-22T20:39:39.956Z,81.20
2023-02-22T20:44:45.626Z,87.60
2023-02-22T20:49:48.070Z,102.70
2023-02-22T20:54:50.364Z,98.60
2023-02-22T20:59:52.348Z,112.10
2023-02-22T21:04:55.353Z,106.10
2023-02-22T21:09:58.155Z,114.20
2023-02-22T21:15:00.981Z,106.90
2023-02-22T21:20:10.126Z,113.10
2023-02-22T21:25:14.068Z,125.00
2023-02-22T21:30:17.034Z,118.40
2023-02-22T21:35:24.256Z,120.90
2023-02-22T21:40:27.579Z,127.00
2023-02-22T21:45:31.297Z,118.30
2023-02-22T21:50:37.867Z,127.60
2023-02-22T21:55:40.966Z,142.90
2023-02-22T22:00:43.226Z,131.10
2023-02-22T22:05:48.213Z,132.80
2023-02-22T22:10:55.389Z,139.40
2023-02-22T22:16:06.229Z,146.40
2023-02-22T22:21:14.029Z,141.50
2023-02-22T22:26:20.101Z,131.70
2023-02-22T22:31:24.810Z,127.90
2023-02-22T22:36:27.650Z,125.60
2023-02-22T22:41:29.752Z,119.10
2023-02-22T22:46:41.196Z,120.10
2023-02-22T22:51:47.528Z,112.10
2023-02-22T22:57:06.548Z,119.90
2023-02-22T23:02:11.462Z,117.50
2023-02-22T23:07:15.047Z,98.20
2023-02-22T23:12:31.358Z,91.90
2023-02-22T23:17:45.768Z,95.90
2023-02-22T23:22:48.884Z,90.40
2023-02-22T23:27:54.017Z,94.70
2023-02-22T23:32:57.213Z,102.80
2023-02-22T23:38:00.314Z,96.60
2023-02-22T23:43:11.831Z,89.40
2023-02-22T23:48:15.230Z,85.90
2023-02-22T23:53:18.635Z,78.60
2023-02-22T23:58:27.928Z,90.70
